Coquimbo, Chile
Current Conditions -  °F | °C
As of 9:00 PM on Monday 22 Dec 2014 (Local Time) from SCSE Reporting Station
Clear Clear  
Wind Chill: 57°   Ceiling: Unl
Heat Index: 57°   Visibility: 6mi
Dew Point: 50°   Wind: 5mph
Humidity: 77%   Direction: 280°W
Pressure: 29.88"   Gusts: NA
Location:  29.96°S, 71.33°W
Report Text: SCSE 230100Z 28004KT CAVOK 14/10 Q1012
Loading
Personal Weather Stations






























Interactive Weather Map New forecast layout! Learn more

10-Day Weather Forecast

Advertisements
Track Severe Weather on mobile